TimePST,TemperatureF,Dew PointF,Humidity,Sea Level PressureIn,VisibilityMPH,Wind Direction,Wind SpeedMPH,Gust SpeedMPH,PrecipitationIn,Events,Conditions,WindDirDegrees,DateUTC
12:04 AM,32.0,30.2,93,30.22,2.5,Calm,Calm,-,0.00,Snow,Light Snow,0,2012-11-14 08:04:00
12:24 AM,32.0,30.2,93,30.22,1.5,Calm,Calm,-,0.00,Snow,Light Snow,0,2012-11-14 08:24:00
12:31 AM,32.0,32.0,100,30.22,1.0,Calm,Calm,-,0.00,Snow,Light Snow,0,2012-11-14 08:31:00
12:39 AM,32.0,30.2,93,30.22,1.5,Calm,Calm,-,0.00,Snow,Light Snow,0,2012-11-14 08:39:00
12:47 AM,32.0,30.2,93,30.22,2.0,Calm,Calm,-,0.00,Snow,Light Snow,0,2012-11-14 08:47:00
12:53 AM,32.0,32.0,100,30.28,2.0,Calm,Calm,-,0.01,,Overcast,0,2012-11-14 08:53:00
1:09 AM,32.0,32.0,100,30.22,3.0,Calm,Calm,-,N/A,,Overcast,0,2012-11-14 09:09:00
1:24 AM,32.0,30.2,93,30.21,2.5,East,3.5,-,N/A,,Overcast,90,2012-11-14 09:24:00
1:44 AM,32.0,32.0,100,30.22,2.5,Calm,Calm,-,N/A,,Overcast,0,2012-11-14 09:44:00
1:53 AM,32.0,32.0,100,30.28,3.0,Calm,Calm,-,N/A,,Overcast,0,2012-11-14 09:53:00
2:05 AM,32.0,32.0,100,30.22,2.5,Calm,Calm,-,N/A,,Overcast,0,2012-11-14 10:05:00
2:22 AM,32.0,30.2,93,30.22,2.5,Calm,Calm,-,N/A,,Overcast,0,2012-11-14 10:22:00
2:40 AM,32.0,32.0,100,30.21,3.0,Calm,Calm,-,N/A,,Overcast,0,2012-11-14 10:40:00
2:53 AM,32.0,30.9,96,30.28,2.5,Calm,Calm,-,N/A,,Overcast,0,2012-11-14 10:53:00
3:00 AM,32.0,32.0,100,30.21,3.0,Calm,Calm,-,N/A,,Overcast,0,2012-11-14 11:00:00
3:10 AM,32.0,30.2,93,30.21,2.5,North,3.5,-,N/A,,Overcast,10,2012-11-14 11:10:00
3:43 AM,32.0,32.0,100,30.20,2.0,Calm,Calm,-,N/A,,Overcast,0,2012-11-14 11:43:00
3:53 AM,32.0,30.9,96,30.27,2.0,Calm,Calm,-,N/A,,Overcast,0,2012-11-14 11:53:00
4:36 AM,30.2,30.2,100,30.21,0.8,SSE,4.6,-,N/A,,Overcast,160,2012-11-14 12:36:00
4:46 AM,30.2,28.4,93,30.21,0.2,SW,3.5,-,N/A,Fog,Light Freezing Fog,220,2012-11-14 12:46:00
4:53 AM,30.0,28.9,96,30.28,0.5,WSW,3.5,-,N/A,Fog,Light Freezing Fog,240,2012-11-14 12:53:00
4:58 AM,28.4,28.4,100,30.21,2.0,Calm,Calm,-,N/A,,Mostly Cloudy,0,2012-11-14 12:58:00
5:09 AM,30.2,28.4,93,30.22,3.0,SSW,3.5,-,N/A,,Mostly Cloudy,210,2012-11-14 13:09:00
5:37 AM,30.2,30.2,100,30.22,2.5,South,3.5,-,0.00,Snow,Light Snow,180,2012-11-14 13:37:00
5:49 AM,28.4,28.4,100,30.22,1.8,Calm,Calm,-,0.00,,Overcast,0,2012-11-14 13:49:00
5:53 AM,28.9,28.0,96,30.30,1.8,SSE,3.5,-,0.00,,Overcast,150,2012-11-14 13:53:00
6:01 AM,28.4,28.4,100,30.22,2.5,SSE,4.6,-,N/A,,Overcast,150,2012-11-14 14:01:00
6:13 AM,28.4,28.4,100,30.22,3.0,Calm,Calm,-,N/A,,Overcast,0,2012-11-14 14:13:00
6:53 AM,30.0,28.9,96,30.33,4.0,Calm,Calm,-,N/A,,Overcast,0,2012-11-14 14:53:00
7:10 AM,30.2,28.4,93,30.25,2.5,Calm,Calm,-,N/A,,Overcast,0,2012-11-14 15:10:00
7:45 AM,30.2,30.2,100,30.26,2.5,Calm,Calm,-,N/A,,Overcast,0,2012-11-14 15:45:00
7:53 AM,30.9,30.0,96,30.34,2.5,Calm,Calm,-,N/A,,Overcast,0,2012-11-14 15:53:00
8:06 AM,30.2,30.2,100,30.26,3.0,Calm,Calm,-,N/A,,Mostly Cloudy,0,2012-11-14 16:06:00
8:53 AM,34.0,32.0,92,30.35,7.0,Calm,Calm,-,N/A,,Overcast,0,2012-11-14 16:53:00
9:40 AM,35.6,33.8,93,30.27,7.0,Calm,Calm,-,N/A,,Overcast,0,2012-11-14 17:40:00
9:53 AM,36.0,33.1,89,30.35,7.0,Calm,Calm,-,N/A,,Overcast,0,2012-11-14 17:53:00
10:07 AM,37.4,33.8,87,30.28,8.0,Calm,Calm,-,N/A,,Overcast,0,2012-11-14 18:07:00
10:28 AM,37.4,33.8,87,30.28,7.0,Calm,Calm,-,N/A,,Overcast,0,2012-11-14 18:28:00
10:53 AM,37.9,34.0,86,30.34,7.0,Calm,Calm,-,N/A,,Overcast,0,2012-11-14 18:53:00
11:36 AM,39.2,35.6,87,30.27,9.0,Calm,Calm,-,N/A,,Scattered Clouds,0,2012-11-14 19:36:00
11:53 AM,42.1,35.1,76,30.32,10.0,Calm,Calm,-,N/A,,Partly Cloudy,0,2012-11-14 19:53:00
12:18 PM,42.8,35.6,76,30.27,10.0,Calm,Calm,-,N/A,,Mostly Cloudy,0,2012-11-14 20:18:00
12:25 PM,42.8,35.6,76,30.26,10.0,Calm,Calm,-,N/A,,Scattered Clouds,0,2012-11-14 20:25:00
12:53 PM,44.1,35.1,71,30.31,10.0,Calm,Calm,-,N/A,,Mostly Cloudy,0,2012-11-14 20:53:00
1:43 PM,42.8,35.6,76,30.26,9.0,NNE,5.8,-,N/A,,Scattered Clouds,30,2012-11-14 21:43:00
1:53 PM,42.1,35.1,76,30.31,9.0,NE,6.9,-,N/A,,Partly Cloudy,40,2012-11-14 21:53:00
2:27 PM,41.0,35.6,81,30.26,9.0,NE,8.1,-,N/A,,Mostly Cloudy,40,2012-11-14 22:27:00
2:53 PM,39.0,34.0,82,30.33,8.0,NNE,5.8,-,N/A,,Mostly Cloudy,20,2012-11-14 22:53:00
3:00 PM,37.4,35.6,93,30.27,8.0,NNE,5.8,-,N/A,,Mostly Cloudy,30,2012-11-14 23:00:00
3:12 PM,37.4,33.8,87,30.27,8.0,NE,8.1,-,N/A,,Partly Cloudy,50,2012-11-14 23:12:00
3:53 PM,36.0,33.1,89,30.34,9.0,ENE,3.5,-,N/A,,Partly Cloudy,70,2012-11-14 23:53:00
4:53 PM,35.1,33.1,92,30.35,9.0,Calm,Calm,-,N/A,,Mostly Cloudy,0,2012-11-15 00:53:00
5:40 PM,30.2,30.2,100,30.28,2.5,Calm,Calm,-,N/A,,Mostly Cloudy,0,2012-11-15 01:40:00
5:51 PM,33.8,32.0,93,30.28,6.0,Calm,Calm,-,N/A,,Overcast,0,2012-11-15 01:51:00
5:53 PM,33.1,32.0,96,30.36,7.0,Calm,Calm,-,N/A,,Overcast,0,2012-11-15 01:53:00
6:53 PM,32.0,30.9,96,30.37,6.0,Calm,Calm,-,N/A,,Overcast,0,2012-11-15 02:53:00
7:53 PM,33.1,30.9,92,30.37,6.0,Calm,Calm,-,N/A,,Overcast,0,2012-11-15 03:53:00
8:53 PM,34.0,32.0,92,30.37,9.0,Calm,Calm,-,N/A,,Overcast,0,2012-11-15 04:53:00
9:53 PM,28.9,28.0,96,30.38,6.0,Calm,Calm,-,N/A,,Scattered Clouds,0,2012-11-15 05:53:00
10:17 PM,30.2,28.4,93,30.30,10.0,SE,3.5,-,N/A,,Mostly Cloudy,130,2012-11-15 06:17:00
10:40 PM,28.4,26.6,93,30.30,10.0,SE,4.6,-,N/A,,Scattered Clouds,130,2012-11-15 06:40:00
10:53 PM,28.0,26.1,92,30.38,10.0,SE,4.6,-,N/A,,Mostly Cloudy,130,2012-11-15 06:53:00
11:53 PM,30.9,28.9,92,30.36,10.0,East,3.5,-,N/A,,Overcast,90,2012-11-15 07:53:00